sensor_id;sensor_type;location;lat;lon;timestamp;temperature;humidity
8896;DHT22;4484;48.928;10.066;2022-10-16T00:01:39;13.90;99.90
8896;DHT22;4484;48.928;10.066;2022-10-16T00:04:06;13.90;99.90
8896;DHT22;4484;48.928;10.066;2022-10-16T00:06:33;13.90;99.90
8896;DHT22;4484;48.928;10.066;2022-10-16T00:09:00;13.90;99.90
8896;DHT22;4484;48.928;10.066;2022-10-16T00:11:30;13.80;99.90
8896;DHT22;4484;48.928;10.066;2022-10-16T00:13:59;13.80;99.90
8896;DHT22;4484;48.928;10.066;2022-10-16T00:16:27;13.90;99.90
8896;DHT22;4484;48.928;10.066;2022-10-16T00:18:55;13.80;99.90
8896;DHT22;4484;48.928;10.066;2022-10-16T00:21:25;13.80;99.90
8896;DHT22;4484;48.928;10.066;2022-10-16T00:23:58;13.70;99.90
8896;DHT22;4484;48.928;10.066;2022-10-16T00:26:26;13.70;99.90
8896;DHT22;4484;48.928;10.066;2022-10-16T00:28:54;13.70;99.90
8896;DHT22;4484;48.928;10.066;2022-10-16T00:31:22;13.70;99.90
8896;DHT22;4484;48.928;10.066;2022-10-16T00:33:50;13.60;99.90
8896;DHT22;4484;48.928;10.066;2022-10-16T00:36:20;13.60;99.90
8896;DHT22;4484;48.928;10.066;2022-10-16T00:38:49;13.60;99.90
8896;DHT22;4484;48.928;10.066;2022-10-16T00:41:17;13.60;99.90
8896;DHT22;4484;48.928;10.066;2022-10-16T00:43:49;13.60;99.90
8896;DHT22;4484;48.928;10.066;2022-10-16T00:46:24;13.60;99.90
8896;DHT22;4484;48.928;10.066;2022-10-16T00:51:45;13.60;99.90
8896;DHT22;4484;48.928;10.066;2022-10-16T00:54:25;13.60;99.90
8896;DHT22;4484;48.928;10.066;2022-10-16T00:56:53;13.60;99.90
8896;DHT22;4484;48.928;10.066;2022-10-16T00:59:28;13.60;99.90
8896;DHT22;4484;48.928;10.066;2022-10-16T01:01:56;13.60;99.90
8896;DHT22;4484;48.928;10.066;2022-10-16T01:04:25;13.60;99.90
8896;DHT22;4484;48.928;10.066;2022-10-16T01:15:42;13.60;99.90
8896;DHT22;4484;48.928;10.066;2022-10-16T01:18:45;13.60;99.90
8896;DHT22;4484;48.928;10.066;2022-10-16T01:21:17;13.60;99.90
8896;DHT22;4484;48.928;10.066;2022-10-16T01:27:07;13.50;99.90
8896;DHT22;4484;48.928;10.066;2022-10-16T01:30:02;13.50;99.90
8896;DHT22;4484;48.928;10.066;2022-10-16T01:32:57;13.50;99.90
8896;DHT22;4484;48.928;10.066;2022-10-16T01:40:36;13.40;99.90
8896;DHT22;4484;48.928;10.066;2022-10-16T01:43:08;13.40;99.90
8896;DHT22;4484;48.928;10.066;2022-10-16T01:45:37;13.40;99.90
8896;DHT22;4484;48.928;10.066;2022-10-16T01:48:05;13.40;99.90
8896;DHT22;4484;48.928;10.066;2022-10-16T01:50:37;13.30;99.90
8896;DHT22;4484;48.928;10.066;2022-10-16T01:53:07;13.30;99.90
8896;DHT22;4484;48.928;10.066;2022-10-16T01:55:45;13.30;99.90
8896;DHT22;4484;48.928;10.066;2022-10-16T01:58:13;13.20;99.90
8896;DHT22;4484;48.928;10.066;2022-10-16T02:00:43;13.20;99.90
8896;DHT22;4484;48.928;10.066;2022-10-16T02:03:12;13.20;99.90
8896;DHT22;4484;48.928;10.066;2022-10-16T02:05:51;13.10;99.90
8896;DHT22;4484;48.928;10.066;2022-10-16T02:08:24;13.10;99.90
8896;DHT22;4484;48.928;10.066;2022-10-16T02:10:52;13.10;99.90
8896;DHT22;4484;48.928;10.066;2022-10-16T02:13:27;13.10;99.90
8896;DHT22;4484;48.928;10.066;2022-10-16T02:15:54;13.10;99.90
8896;DHT22;4484;48.928;10.066;2022-10-16T02:18:21;13.10;99.90
8896;DHT22;4484;48.928;10.066;2022-10-16T02:21:25;13.10;99.90
8896;DHT22;4484;48.928;10.066;2022-10-16T02:24:06;13.10;99.90
8896;DHT22;4484;48.928;10.066;2022-10-16T02:26:51;13.10;99.90
8896;DHT22;4484;48.928;10.066;2022-10-16T02:29:23;13.10;99.90
8896;DHT22;4484;48.928;10.066;2022-10-16T02:31:54;13.10;99.90
8896;DHT22;4484;48.928;10.066;2022-10-16T02:34:24;13.10;99.90
8896;DHT22;4484;48.928;10.066;2022-10-16T02:36:52;13.10;99.90
8896;DHT22;4484;48.928;10.066;2022-10-16T02:39:20;13.10;99.90
8896;DHT22;4484;48.928;10.066;2022-10-16T02:41:48;13.20;99.90
8896;DHT22;4484;48.928;10.066;2022-10-16T02:44:15;13.20;99.90
8896;DHT22;4484;48.928;10.066;2022-10-16T02:46:42;13.20;99.90
8896;DHT22;4484;48.928;10.066;2022-10-16T02:49:09;13.20;99.90
8896;DHT22;4484;48.928;10.066;2022-10-16T02:51:36;13.10;99.90
8896;DHT22;4484;48.928;10.066;2022-10-16T02:54:03;13.10;99.90
8896;DHT22;4484;48.928;10.066;2022-10-16T02:56:30;13.20;99.90
8896;DHT22;4484;48.928;10.066;2022-10-16T02:58:57;13.10;99.90
8896;DHT22;4484;48.928;10.066;2022-10-16T03:01:24;13.20;99.90
8896;DHT22;4484;48.928;10.066;2022-10-16T03:03:51;13.10;99.90
8896;DHT22;4484;48.928;10.066;2022-10-16T03:06:18;13.20;99.90
8896;DHT22;4484;48.928;10.066;2022-10-16T03:08:45;13.20;99.90
8896;DHT22;4484;48.928;10.066;2022-10-16T03:11:12;13.20;99.90
8896;DHT22;4484;48.928;10.066;2022-10-16T03:13:39;13.20;99.90
8896;DHT22;4484;48.928;10.066;2022-10-16T03:16:06;13.30;99.90
8896;DHT22;4484;48.928;10.066;2022-10-16T03:18:33;13.30;99.90
8896;DHT22;4484;48.928;10.066;2022-10-16T03:21:00;13.30;99.90
8896;DHT22;4484;48.928;10.066;2022-10-16T03:23:27;13.30;99.90
8896;DHT22;4484;48.928;10.066;2022-10-16T03:25:54;13.30;99.90
8896;DHT22;4484;48.928;10.066;2022-10-16T03:28:21;13.40;99.90
8896;DHT22;4484;48.928;10.066;2022-10-16T03:30:48;13.40;99.90
8896;DHT22;4484;48.928;10.066;2022-10-16T03:33:15;13.40;99.90
8896;DHT22;4484;48.928;10.066;2022-10-16T03:35:42;13.40;99.90
8896;DHT22;4484;48.928;10.066;2022-10-16T03:38:09;13.40;99.90
8896;DHT22;4484;48.928;10.066;2022-10-16T03:40:36;13.40;99.90
8896;DHT22;4484;48.928;10.066;2022-10-16T03:43:03;13.40;99.90
8896;DHT22;4484;48.928;10.066;2022-10-16T03:45:30;13.40;99.90
8896;DHT22;4484;48.928;10.066;2022-10-16T03:47:57;13.40;99.90
8896;DHT22;4484;48.928;10.066;2022-10-16T03:50:24;13.40;99.90
8896;DHT22;4484;48.928;10.066;2022-10-16T03:52:51;13.40;99.90
8896;DHT22;4484;48.928;10.066;2022-10-16T03:55:17;13.30;99.90
8896;DHT22;4484;48.928;10.066;2022-10-16T03:57:44;13.30;99.90
8896;DHT22;4484;48.928;10.066;2022-10-16T04:00:12;13.30;99.90
8896;DHT22;4484;48.928;10.066;2022-10-16T04:02:39;13.30;99.90
8896;DHT22;4484;48.928;10.066;2022-10-16T04:05:06;13.30;99.90
8896;DHT22;4484;48.928;10.066;2022-10-16T04:07:34;13.30;99.90
8896;DHT22;4484;48.928;10.066;2022-10-16T04:10:01;13.20;99.90
8896;DHT22;4484;48.928;10.066;2022-10-16T04:12:28;13.20;99.90
8896;DHT22;4484;48.928;10.066;2022-10-16T04:14:55;13.20;99.90
8896;DHT22;4484;48.928;10.066;2022-10-16T04:17:22;13.20;99.90
8896;DHT22;4484;48.928;10.066;2022-10-16T04:19:50;13.20;99.90
8896;DHT22;4484;48.928;10.066;2022-10-16T04:22:16;13.10;99.90
8896;DHT22;4484;48.928;10.066;2022-10-16T04:24:43;13.10;99.90
8896;DHT22;4484;48.928;10.066;2022-10-16T04:27:10;13.10;99.90
8896;DHT22;4484;48.928;10.066;2022-10-16T04:29:37;13.10;99.90
8896;DHT22;4484;48.928;10.066;2022-10-16T04:32:04;13.10;99.90
8896;DHT22;4484;48.928;10.066;2022-10-16T04:34:31;13.00;99.90
8896;DHT22;4484;48.928;10.066;2022-10-16T04:36:58;13.00;99.90
8896;DHT22;4484;48.928;10.066;2022-10-16T04:39:25;13.00;99.90
8896;DHT22;4484;48.928;10.066;2022-10-16T04:41:52;12.90;99.90
8896;DHT22;4484;48.928;10.066;2022-10-16T04:44:19;12.90;99.90
8896;DHT22;4484;48.928;10.066;2022-10-16T04:46:46;12.90;99.90
8896;DHT22;4484;48.928;10.066;2022-10-16T04:49:13;12.90;99.90
8896;DHT22;4484;48.928;10.066;2022-10-16T04:51:40;12.80;99.90
8896;DHT22;4484;48.928;10.066;2022-10-16T04:54:08;12.80;99.90
8896;DHT22;4484;48.928;10.066;2022-10-16T04:56:35;12.80;99.90
8896;DHT22;4484;48.928;10.066;2022-10-16T04:59:09;12.70;99.90
8896;DHT22;4484;48.928;10.066;2022-10-16T05:01:36;12.70;99.90
8896;DHT22;4484;48.928;10.066;2022-10-16T05:04:03;12.70;99.90
8896;DHT22;4484;48.928;10.066;2022-10-16T05:06:31;12.70;99.90
8896;DHT22;4484;48.928;10.066;2022-10-16T05:08:58;12.70;99.90
8896;DHT22;4484;48.928;10.066;2022-10-16T05:11:25;12.70;99.90
8896;DHT22;4484;48.928;10.066;2022-10-16T05:13:52;12.70;99.90
8896;DHT22;4484;48.928;10.066;2022-10-16T05:16:21;12.70;99.90
8896;DHT22;4484;48.928;10.066;2022-10-16T05:18:48;12.70;99.90
8896;DHT22;4484;48.928;10.066;2022-10-16T05:21:19;12.70;99.90
8896;DHT22;4484;48.928;10.066;2022-10-16T05:23:46;12.70;99.90
8896;DHT22;4484;48.928;10.066;2022-10-16T05:26:13;12.70;99.90
8896;DHT22;4484;48.928;10.066;2022-10-16T05:28:40;12.70;99.90
8896;DHT22;4484;48.928;10.066;2022-10-16T05:31:08;12.80;99.90
8896;DHT22;4484;48.928;10.066;2022-10-16T05:33:36;12.80;99.90
8896;DHT22;4484;48.928;10.066;2022-10-16T05:36:04;12.70;99.90
8896;DHT22;4484;48.928;10.066;2022-10-16T05:38:31;12.80;99.90
8896;DHT22;4484;48.928;10.066;2022-10-16T05:40:58;12.80;99.90
8896;DHT22;4484;48.928;10.066;2022-10-16T05:43:27;12.80;99.90
8896;DHT22;4484;48.928;10.066;2022-10-16T05:45:56;12.80;99.90
8896;DHT22;4484;48.928;10.066;2022-10-16T05:48:23;12.80;99.90
8896;DHT22;4484;48.928;10.066;2022-10-16T05:51:05;12.80;99.90
8896;DHT22;4484;48.928;10.066;2022-10-16T05:53:34;12.80;99.90
8896;DHT22;4484;48.928;10.066;2022-10-16T05:56:02;12.80;99.90
8896;DHT22;4484;48.928;10.066;2022-10-16T05:58:32;12.80;99.90
8896;DHT22;4484;48.928;10.066;2022-10-16T06:01:02;12.80;99.90
8896;DHT22;4484;48.928;10.066;2022-10-16T06:03:30;12.80;99.90
8896;DHT22;4484;48.928;10.066;2022-10-16T06:05:56;12.80;99.90
8896;DHT22;4484;48.928;10.066;2022-10-16T06:08:25;12.90;99.90
8896;DHT22;4484;48.928;10.066;2022-10-16T06:11:06;12.90;99.90
8896;DHT22;4484;48.928;10.066;2022-10-16T06:13:34;13.00;99.90
8896;DHT22;4484;48.928;10.066;2022-10-16T06:16:01;13.00;99.90
8896;DHT22;4484;48.928;10.066;2022-10-16T06:18:29;13.10;99.90
8896;DHT22;4484;48.928;10.066;2022-10-16T06:20:56;13.10;99.90
8896;DHT22;4484;48.928;10.066;2022-10-16T06:23:24;13.20;99.90
8896;DHT22;4484;48.928;10.066;2022-10-16T06:25:51;13.20;99.90
8896;DHT22;4484;48.928;10.066;2022-10-16T06:28:18;13.20;99.90
8896;DHT22;4484;48.928;10.066;2022-10-16T06:30:45;13.20;99.90
8896;DHT22;4484;48.928;10.066;2022-10-16T06:33:12;13.30;99.90
8896;DHT22;4484;48.928;10.066;2022-10-16T06:35:39;13.30;99.90
8896;DHT22;4484;48.928;10.066;2022-10-16T06:38:06;13.30;99.90
8896;DHT22;4484;48.928;10.066;2022-10-16T06:40:33;13.40;99.90
8896;DHT22;4484;48.928;10.066;2022-10-16T06:43:00;13.40;99.90
8896;DHT22;4484;48.928;10.066;2022-10-16T06:45:27;13.50;99.90
8896;DHT22;4484;48.928;10.066;2022-10-16T06:47:54;13.60;99.90
8896;DHT22;4484;48.928;10.066;2022-10-16T06:50:21;13.60;99.90
8896;DHT22;4484;48.928;10.066;2022-10-16T06:52:49;13.70;99.90
8896;DHT22;4484;48.928;10.066;2022-10-16T06:55:16;13.70;99.90
8896;DHT22;4484;48.928;10.066;2022-10-16T06:57:46;13.80;99.90
8896;DHT22;4484;48.928;10.066;2022-10-16T07:00:13;13.90;99.90
8896;DHT22;4484;48.928;10.066;2022-10-16T07:02:41;14.00;99.90
8896;DHT22;4484;48.928;10.066;2022-10-16T07:05:09;14.10;99.90
8896;DHT22;4484;48.928;10.066;2022-10-16T07:07:35;14.20;99.90
8896;DHT22;4484;48.928;10.066;2022-10-16T07:10:28;14.30;99.90
8896;DHT22;4484;48.928;10.066;2022-10-16T07:12:55;14.40;99.90
8896;DHT22;4484;48.928;10.066;2022-10-16T07:15:22;14.40;99.90
8896;DHT22;4484;48.928;10.066;2022-10-16T07:17:49;14.50;99.90
8896;DHT22;4484;48.928;10.066;2022-10-16T07:20:16;14.60;99.90
8896;DHT22;4484;48.928;10.066;2022-10-16T07:22:43;14.60;99.90
8896;DHT22;4484;48.928;10.066;2022-10-16T07:25:10;14.70;99.90
8896;DHT22;4484;48.928;10.066;2022-10-16T07:27:38;14.80;99.90
8896;DHT22;4484;48.928;10.066;2022-10-16T07:30:05;15.00;99.90
8896;DHT22;4484;48.928;10.066;2022-10-16T07:32:35;15.10;99.90
8896;DHT22;4484;48.928;10.066;2022-10-16T07:35:02;15.30;99.90
8896;DHT22;4484;48.928;10.066;2022-10-16T07:37:29;15.40;99.90
8896;DHT22;4484;48.928;10.066;2022-10-16T07:39:56;15.50;99.90
8896;DHT22;4484;48.928;10.066;2022-10-16T07:42:23;15.60;99.90
8896;DHT22;4484;48.928;10.066;2022-10-16T07:44:50;15.80;99.90
8896;DHT22;4484;48.928;10.066;2022-10-16T07:47:17;15.90;99.90
8896;DHT22;4484;48.928;10.066;2022-10-16T07:49:44;16.10;99.90
8896;DHT22;4484;48.928;10.066;2022-10-16T07:52:11;16.20;99.90
8896;DHT22;4484;48.928;10.066;2022-10-16T07:54:38;16.30;99.90
8896;DHT22;4484;48.928;10.066;2022-10-16T07:57:05;16.30;99.90
8896;DHT22;4484;48.928;10.066;2022-10-16T07:59:32;16.40;99.90
8896;DHT22;4484;48.928;10.066;2022-10-16T08:01:59;16.40;99.90
8896;DHT22;4484;48.928;10.066;2022-10-16T08:04:26;16.50;99.90
8896;DHT22;4484;48.928;10.066;2022-10-16T08:06:53;16.60;99.90
8896;DHT22;4484;48.928;10.066;2022-10-16T08:09:21;16.70;99.90
8896;DHT22;4484;48.928;10.066;2022-10-16T08:11:47;16.80;99.90
8896;DHT22;4484;48.928;10.066;2022-10-16T08:14:14;17.00;99.90
8896;DHT22;4484;48.928;10.066;2022-10-16T08:16:41;17.00;99.90
8896;DHT22;4484;48.928;10.066;2022-10-16T08:19:08;17.10;99.90
8896;DHT22;4484;48.928;10.066;2022-10-16T08:21:35;17.10;99.90
8896;DHT22;4484;48.928;10.066;2022-10-16T08:24:02;17.20;99.90
8896;DHT22;4484;48.928;10.066;2022-10-16T08:26:29;17.20;99.90
8896;DHT22;4484;48.928;10.066;2022-10-16T08:28:56;17.20;99.90
8896;DHT22;4484;48.928;10.066;2022-10-16T08:31:23;17.20;99.90
8896;DHT22;4484;48.928;10.066;2022-10-16T08:33:51;17.20;99.90
8896;DHT22;4484;48.928;10.066;2022-10-16T08:36:19;17.20;99.90
8896;DHT22;4484;48.928;10.066;2022-10-16T08:38:49;17.20;99.90
8896;DHT22;4484;48.928;10.066;2022-10-16T08:44:23;17.20;99.90
8896;DHT22;4484;48.928;10.066;2022-10-16T08:49:35;17.20;99.90
8896;DHT22;4484;48.928;10.066;2022-10-16T08:52:03;17.20;99.90
8896;DHT22;4484;48.928;10.066;2022-10-16T08:54:34;17.30;99.90
8896;DHT22;4484;48.928;10.066;2022-10-16T08:59:39;17.30;99.90
8896;DHT22;4484;48.928;10.066;2022-10-16T09:02:31;17.30;99.90
8896;DHT22;4484;48.928;10.066;2022-10-16T09:07:57;17.40;99.90
8896;DHT22;4484;48.928;10.066;2022-10-16T09:13:57;17.50;99.90
8896;DHT22;4484;48.928;10.066;2022-10-16T09:19:20;17.70;99.90
8896;DHT22;4484;48.928;10.066;2022-10-16T09:21:50;17.80;99.90
8896;DHT22;4484;48.928;10.066;2022-10-16T09:24:20;17.90;99.90
8896;DHT22;4484;48.928;10.066;2022-10-16T09:26:52;17.90;99.90
8896;DHT22;4484;48.928;10.066;2022-10-16T09:29:21;18.00;99.90
8896;DHT22;4484;48.928;10.066;2022-10-16T09:31:48;18.10;99.90
8896;DHT22;4484;48.928;10.066;2022-10-16T09:34:35;18.10;99.90
8896;DHT22;4484;48.928;10.066;2022-10-16T09:37:09;18.20;99.90
8896;DHT22;4484;48.928;10.066;2022-10-16T09:39:49;18.30;99.90
8896;DHT22;4484;48.928;10.066;2022-10-16T09:42:22;18.40;99.90
8896;DHT22;4484;48.928;10.066;2022-10-16T09:44:51;18.40;99.90
8896;DHT22;4484;48.928;10.066;2022-10-16T09:47:21;18.40;99.90
8896;DHT22;4484;48.928;10.066;2022-10-16T09:49:58;18.40;99.90
8896;DHT22;4484;48.928;10.066;2022-10-16T09:52:29;18.50;99.90
8896;DHT22;4484;48.928;10.066;2022-10-16T09:54:58;18.50;99.90
8896;DHT22;4484;48.928;10.066;2022-10-16T09:57:26;18.50;99.90
8896;DHT22;4484;48.928;10.066;2022-10-16T09:59:56;18.50;99.90
8896;DHT22;4484;48.928;10.066;2022-10-16T10:04:56;18.60;99.90
8896;DHT22;4484;48.928;10.066;2022-10-16T10:07:28;18.70;99.90
8896;DHT22;4484;48.928;10.066;2022-10-16T10:10:03;18.80;99.90
8896;DHT22;4484;48.928;10.066;2022-10-16T10:12:32;18.80;99.90
8896;DHT22;4484;48.928;10.066;2022-10-16T10:15:07;19.00;99.90
8896;DHT22;4484;48.928;10.066;2022-10-16T10:18:15;19.20;99.90
8896;DHT22;4484;48.928;10.066;2022-10-16T10:20:36;19.30;99.90
8896;DHT22;4484;48.928;10.066;2022-10-16T10:23:21;19.40;99.90
8896;DHT22;4484;48.928;10.066;2022-10-16T10:28:54;19.50;99.90
8896;DHT22;4484;48.928;10.066;2022-10-16T10:40:11;20.00;99.90
8896;DHT22;4484;48.928;10.066;2022-10-16T10:45:27;20.60;99.90
8896;DHT22;4484;48.928;10.066;2022-10-16T10:50:54;21.30;99.90
8896;DHT22;4484;48.928;10.066;2022-10-16T11:08:00;24.90;99.90
8896;DHT22;4484;48.928;10.066;2022-10-16T11:10:33;25.10;99.90
8896;DHT22;4484;48.928;10.066;2022-10-16T11:13:15;25.40;99.90
8896;DHT22;4484;48.928;10.066;2022-10-16T11:15:44;25.70;99.90
8896;DHT22;4484;48.928;10.066;2022-10-16T11:18:20;25.80;99.90
8896;DHT22;4484;48.928;10.066;2022-10-16T11:20:59;25.90;99.90
8896;DHT22;4484;48.928;10.066;2022-10-16T11:26:08;26.00;99.90
8896;DHT22;4484;48.928;10.066;2022-10-16T11:28:54;26.10;99.90
8896;DHT22;4484;48.928;10.066;2022-10-16T11:31:28;26.40;99.90
8896;DHT22;4484;48.928;10.066;2022-10-16T11:34:01;26.60;99.90
8896;DHT22;4484;48.928;10.066;2022-10-16T11:36:38;26.50;99.90
8896;DHT22;4484;48.928;10.066;2022-10-16T11:39:22;26.70;99.90
8896;DHT22;4484;48.928;10.066;2022-10-16T11:44:53;27.10;99.90
8896;DHT22;4484;48.928;10.066;2022-10-16T11:47:41;27.20;99.90
8896;DHT22;4484;48.928;10.066;2022-10-16T11:50:35;27.20;99.90
8896;DHT22;4484;48.928;10.066;2022-10-16T11:53:19;27.40;99.90
8896;DHT22;4484;48.928;10.066;2022-10-16T11:55:48;27.50;99.90
8896;DHT22;4484;48.928;10.066;2022-10-16T11:58:41;27.40;99.30
8896;DHT22;4484;48.928;10.066;2022-10-16T12:08:55;28.50;98.10
8896;DHT22;4484;48.928;10.066;2022-10-16T12:13:51;28.40;94.50
8896;DHT22;4484;48.928;10.066;2022-10-16T12:16:23;28.40;94.80
8896;DHT22;4484;48.928;10.066;2022-10-16T12:19:13;28.50;95.50
8896;DHT22;4484;48.928;10.066;2022-10-16T12:21:41;28.40;93.40
8896;DHT22;4484;48.928;10.066;2022-10-16T12:26:49;27.70;94.40
8896;DHT22;4484;48.928;10.066;2022-10-16T12:29:35;27.80;95.60
8896;DHT22;4484;48.928;10.066;2022-10-16T12:32:05;27.90;95.60
8896;DHT22;4484;48.928;10.066;2022-10-16T12:34:36;28.00;94.70
8896;DHT22;4484;48.928;10.066;2022-10-16T12:37:27;27.80;93.20
8896;DHT22;4484;48.928;10.066;2022-10-16T12:39:55;27.60;94.00
8896;DHT22;4484;48.928;10.066;2022-10-16T12:42:32;27.60;95.20
8896;DHT22;4484;48.928;10.066;2022-10-16T12:45:01;28.00;96.80
8896;DHT22;4484;48.928;10.066;2022-10-16T12:47:48;28.40;93.90
8896;DHT22;4484;48.928;10.066;2022-10-16T12:50:34;28.60;92.00
8896;DHT22;4484;48.928;10.066;2022-10-16T12:53:04;28.70;93.40
8896;DHT22;4484;48.928;10.066;2022-10-16T12:55:49;29.00;93.10
8896;DHT22;4484;48.928;10.066;2022-10-16T12:58:49;29.30;93.70
8896;DHT22;4484;48.928;10.066;2022-10-16T13:04:30;29.60;90.50
8896;DHT22;4484;48.928;10.066;2022-10-16T13:07:19;29.60;91.90
8896;DHT22;4484;48.928;10.066;2022-10-16T13:10:21;29.60;92.30
8896;DHT22;4484;48.928;10.066;2022-10-16T13:22:05;29.90;89.60
8896;DHT22;4484;48.928;10.066;2022-10-16T13:27:49;29.80;90.30
8896;DHT22;4484;48.928;10.066;2022-10-16T13:31:09;29.40;88.90
8896;DHT22;4484;48.928;10.066;2022-10-16T13:35:58;29.00;91.80
8896;DHT22;4484;48.928;10.066;2022-10-16T13:38:28;29.10;90.60
8896;DHT22;4484;48.928;10.066;2022-10-16T13:40:57;29.00;91.40
8896;DHT22;4484;48.928;10.066;2022-10-16T13:43:42;28.70;91.40
8896;DHT22;4484;48.928;10.066;2022-10-16T13:46:15;28.30;90.10
8896;DHT22;4484;48.928;10.066;2022-10-16T13:48:44;27.80;90.90
8896;DHT22;4484;48.928;10.066;2022-10-16T13:51:16;27.50;90.60
8896;DHT22;4484;48.928;10.066;2022-10-16T13:53:44;27.00;91.60
8896;DHT22;4484;48.928;10.066;2022-10-16T13:56:14;26.70;92.70
8896;DHT22;4484;48.928;10.066;2022-10-16T13:58:41;26.50;93.80
8896;DHT22;4484;48.928;10.066;2022-10-16T14:01:18;26.30;93.70
8896;DHT22;4484;48.928;10.066;2022-10-16T14:03:46;26.10;93.60
8896;DHT22;4484;48.928;10.066;2022-10-16T14:06:17;25.90;94.80
8896;DHT22;4484;48.928;10.066;2022-10-16T14:11:56;25.50;94.40
8896;DHT22;4484;48.928;10.066;2022-10-16T14:14:24;25.30;95.10
8896;DHT22;4484;48.928;10.066;2022-10-16T14:16:51;25.10;95.60
8896;DHT22;4484;48.928;10.066;2022-10-16T14:19:22;25.00;96.00
8896;DHT22;4484;48.928;10.066;2022-10-16T14:21:51;24.90;96.50
8896;DHT22;4484;48.928;10.066;2022-10-16T14:26:58;24.60;96.40
8896;DHT22;4484;48.928;10.066;2022-10-16T14:29:27;24.50;97.90
8896;DHT22;4484;48.928;10.066;2022-10-16T14:32:03;24.40;98.70
8896;DHT22;4484;48.928;10.066;2022-10-16T14:34:38;24.30;97.70
8896;DHT22;4484;48.928;10.066;2022-10-16T14:37:27;24.20;97.60
8896;DHT22;4484;48.928;10.066;2022-10-16T14:39:56;24.10;98.90
8896;DHT22;4484;48.928;10.066;2022-10-16T14:42:24;24.10;99.60
8896;DHT22;4484;48.928;10.066;2022-10-16T14:44:53;24.10;99.90
8896;DHT22;4484;48.928;10.066;2022-10-16T14:47:25;24.10;99.90
8896;DHT22;4484;48.928;10.066;2022-10-16T14:49:54;24.00;99.60
8896;DHT22;4484;48.928;10.066;2022-10-16T14:52:22;24.00;99.90
8896;DHT22;4484;48.928;10.066;2022-10-16T14:54:50;24.00;99.90
8896;DHT22;4484;48.928;10.066;2022-10-16T14:57:24;24.00;99.90
8896;DHT22;4484;48.928;10.066;2022-10-16T14:59:53;23.90;99.90
8896;DHT22;4484;48.928;10.066;2022-10-16T15:02:32;23.70;99.90
8896;DHT22;4484;48.928;10.066;2022-10-16T15:05:26;23.50;99.10
8896;DHT22;4484;48.928;10.066;2022-10-16T15:07:54;23.20;99.90
8896;DHT22;4484;48.928;10.066;2022-10-16T15:10:23;23.00;99.90
8896;DHT22;4484;48.928;10.066;2022-10-16T15:12:51;22.90;99.90
8896;DHT22;4484;48.928;10.066;2022-10-16T15:17:57;22.40;99.90
8896;DHT22;4484;48.928;10.066;2022-10-16T15:20:24;22.30;99.90
8896;DHT22;4484;48.928;10.066;2022-10-16T15:22:52;22.20;99.90
8896;DHT22;4484;48.928;10.066;2022-10-16T15:28:09;22.10;99.90
8896;DHT22;4484;48.928;10.066;2022-10-16T15:30:37;22.10;99.90
8896;DHT22;4484;48.928;10.066;2022-10-16T15:33:08;22.00;99.90
8896;DHT22;4484;48.928;10.066;2022-10-16T15:35:37;21.90;99.90
8896;DHT22;4484;48.928;10.066;2022-10-16T15:38:05;21.90;99.90
8896;DHT22;4484;48.928;10.066;2022-10-16T15:40:32;21.70;99.90
8896;DHT22;4484;48.928;10.066;2022-10-16T15:42:59;21.60;99.90
8896;DHT22;4484;48.928;10.066;2022-10-16T15:45:26;21.40;99.90
8896;DHT22;4484;48.928;10.066;2022-10-16T15:47:53;21.30;99.90
8896;DHT22;4484;48.928;10.066;2022-10-16T15:50:20;21.20;99.90
8896;DHT22;4484;48.928;10.066;2022-10-16T15:52:47;21.00;99.90
8896;DHT22;4484;48.928;10.066;2022-10-16T15:55:14;20.90;99.90
8896;DHT22;4484;48.928;10.066;2022-10-16T15:57:41;20.80;99.90
8896;DHT22;4484;48.928;10.066;2022-10-16T16:00:16;20.70;99.90
8896;DHT22;4484;48.928;10.066;2022-10-16T16:02:48;20.70;99.90
8896;DHT22;4484;48.928;10.066;2022-10-16T16:05:16;20.60;99.90
8896;DHT22;4484;48.928;10.066;2022-10-16T16:07:42;20.50;99.90
8896;DHT22;4484;48.928;10.066;2022-10-16T16:10:10;20.50;99.90
8896;DHT22;4484;48.928;10.066;2022-10-16T16:12:38;20.40;99.90
8896;DHT22;4484;48.928;10.066;2022-10-16T16:15:07;20.30;99.90
8896;DHT22;4484;48.928;10.066;2022-10-16T16:17:36;20.20;99.90
8896;DHT22;4484;48.928;10.066;2022-10-16T16:20:04;20.20;99.90
8896;DHT22;4484;48.928;10.066;2022-10-16T16:22:32;20.00;99.90
8896;DHT22;4484;48.928;10.066;2022-10-16T16:24:59;20.00;99.90
8896;DHT22;4484;48.928;10.066;2022-10-16T16:27:26;19.90;99.90
8896;DHT22;4484;48.928;10.066;2022-10-16T16:29:57;19.80;99.90
8896;DHT22;4484;48.928;10.066;2022-10-16T16:32:24;19.70;99.90
8896;DHT22;4484;48.928;10.066;2022-10-16T16:34:51;19.60;99.90
8896;DHT22;4484;48.928;10.066;2022-10-16T16:37:18;19.60;99.90
8896;DHT22;4484;48.928;10.066;2022-10-16T16:39:45;19.60;99.90
8896;DHT22;4484;48.928;10.066;2022-10-16T16:42:12;19.40;99.90
8896;DHT22;4484;48.928;10.066;2022-10-16T16:44:38;19.40;99.90
8896;DHT22;4484;48.928;10.066;2022-10-16T16:47:05;19.30;99.90
8896;DHT22;4484;48.928;10.066;2022-10-16T16:49:32;19.20;99.90
8896;DHT22;4484;48.928;10.066;2022-10-16T16:51:59;19.10;99.90
8896;DHT22;4484;48.928;10.066;2022-10-16T16:54:26;19.10;99.90
8896;DHT22;4484;48.928;10.066;2022-10-16T16:56:54;19.00;99.90
8896;DHT22;4484;48.928;10.066;2022-10-16T16:59:21;18.90;99.90
8896;DHT22;4484;48.928;10.066;2022-10-16T17:01:49;18.80;99.90
8896;DHT22;4484;48.928;10.066;2022-10-16T17:04:22;18.70;99.90
8896;DHT22;4484;48.928;10.066;2022-10-16T17:06:49;18.60;99.90
8896;DHT22;4484;48.928;10.066;2022-10-16T17:09:16;18.60;99.90
8896;DHT22;4484;48.928;10.066;2022-10-16T17:11:43;18.50;99.90
8896;DHT22;4484;48.928;10.066;2022-10-16T17:14:12;18.50;99.90
8896;DHT22;4484;48.928;10.066;2022-10-16T17:16:40;18.40;99.90
8896;DHT22;4484;48.928;10.066;2022-10-16T17:19:14;18.40;99.90
8896;DHT22;4484;48.928;10.066;2022-10-16T17:21:42;18.30;99.90
8896;DHT22;4484;48.928;10.066;2022-10-16T17:24:14;18.30;99.90
8896;DHT22;4484;48.928;10.066;2022-10-16T17:26:54;18.20;99.90
8896;DHT22;4484;48.928;10.066;2022-10-16T17:29:23;18.20;99.90
8896;DHT22;4484;48.928;10.066;2022-10-16T17:31:56;18.20;99.90
8896;DHT22;4484;48.928;10.066;2022-10-16T17:34:25;18.10;99.90
8896;DHT22;4484;48.928;10.066;2022-10-16T17:37:04;18.10;99.90
8896;DHT22;4484;48.928;10.066;2022-10-16T17:39:32;18.00;99.90
8896;DHT22;4484;48.928;10.066;2022-10-16T17:41:59;18.00;99.90
8896;DHT22;4484;48.928;10.066;2022-10-16T17:44:26;18.00;99.90
8896;DHT22;4484;48.928;10.066;2022-10-16T17:46:53;17.90;99.90
8896;DHT22;4484;48.928;10.066;2022-10-16T17:49:20;17.90;99.90
8896;DHT22;4484;48.928;10.066;2022-10-16T17:51:52;17.90;99.90
8896;DHT22;4484;48.928;10.066;2022-10-16T17:54:20;17.80;99.90
8896;DHT22;4484;48.928;10.066;2022-10-16T17:56:47;17.80;99.90
8896;DHT22;4484;48.928;10.066;2022-10-16T17:59:14;17.70;99.90
8896;DHT22;4484;48.928;10.066;2022-10-16T18:01:41;17.70;99.90
8896;DHT22;4484;48.928;10.066;2022-10-16T18:04:14;17.60;99.90
8896;DHT22;4484;48.928;10.066;2022-10-16T18:06:43;17.60;99.90